sensor_id;sensor_type;location;lat;lon;timestamp;P1;durP1;ratioP1;P2;durP2;ratioP2
52029;SDS011;38043;53.224;6.580;2023-04-01T00:01:37;15.70;;;10.27;;
52029;SDS011;38043;53.224;6.580;2023-04-01T00:04:03;14.32;;;9.88;;
52029;SDS011;38043;53.224;6.580;2023-04-01T00:06:28;14.40;;;10.13;;
52029;SDS011;38043;53.224;6.580;2023-04-01T00:08:54;13.90;;;10.30;;
52029;SDS011;38043;53.224;6.580;2023-04-01T00:11:20;13.98;;;10.75;;
52029;SDS011;38043;53.224;6.580;2023-04-01T00:13:46;13.20;;;10.10;;
52029;SDS011;38043;53.224;6.580;2023-04-01T00:16:12;15.95;;;10.48;;
52029;SDS011;38043;53.224;6.580;2023-04-01T00:18:39;14.70;;;9.73;;
52029;SDS011;38043;53.224;6.580;2023-04-01T00:21:05;17.83;;;9.80;;
52029;SDS011;38043;53.224;6.580;2023-04-01T00:23:31;13.52;;;10.50;;
52029;SDS011;38043;53.224;6.580;2023-04-01T00:25:58;15.50;;;10.68;;
52029;SDS011;38043;53.224;6.580;2023-04-01T00:28:27;17.10;;;10.77;;
52029;SDS011;38043;53.224;6.580;2023-04-01T00:30:53;16.25;;;10.77;;
52029;SDS011;38043;53.224;6.580;2023-04-01T00:33:19;15.95;;;10.55;;
52029;SDS011;38043;53.224;6.580;2023-04-01T00:35:45;17.98;;;10.77;;
52029;SDS011;38043;53.224;6.580;2023-04-01T00:38:11;17.38;;;11.00;;
52029;SDS011;38043;53.224;6.580;2023-04-01T00:40:41;14.07;;;10.20;;
52029;SDS011;38043;53.224;6.580;2023-04-01T00:43:12;13.63;;;9.23;;
52029;SDS011;38043;53.224;6.580;2023-04-01T00:45:43;13.63;;;9.35;;
52029;SDS011;38043;53.224;6.580;2023-04-01T00:48:12;17.60;;;10.40;;
52029;SDS011;38043;53.224;6.580;2023-04-01T00:50:44;16.42;;;10.30;;
52029;SDS011;38043;53.224;6.580;2023-04-01T00:53:16;15.10;;;9.50;;
52029;SDS011;38043;53.224;6.580;2023-04-01T00:55:45;17.88;;;10.73;;
52029;SDS011;38043;53.224;6.580;2023-04-01T00:58:17;18.92;;;10.70;;
52029;SDS011;38043;53.224;6.580;2023-04-01T01:00:45;15.25;;;10.40;;
52029;SDS011;38043;53.224;6.580;2023-04-01T01:03:13;16.90;;;10.85;;
52029;SDS011;38043;53.224;6.580;2023-04-01T01:08:15;21.30;;;11.40;;
52029;SDS011;38043;53.224;6.580;2023-04-01T01:10:49;15.15;;;10.38;;
52029;SDS011;38043;53.224;6.580;2023-04-01T01:13:31;15.75;;;11.20;;
52029;SDS011;38043;53.224;6.580;2023-04-01T01:16:20;16.77;;;10.82;;
52029;SDS011;38043;53.224;6.580;2023-04-01T01:22:06;19.88;;;11.48;;
52029;SDS011;38043;53.224;6.580;2023-04-01T01:25:25;17.73;;;11.27;;
52029;SDS011;38043;53.224;6.580;2023-04-01T01:27:54;18.52;;;11.40;;
52029;SDS011;38043;53.224;6.580;2023-04-01T01:30:39;16.67;;;10.77;;
52029;SDS011;38043;53.224;6.580;2023-04-01T01:33:24;16.98;;;11.80;;
52029;SDS011;38043;53.224;6.580;2023-04-01T01:36:02;15.88;;;11.20;;
52029;SDS011;38043;53.224;6.580;2023-04-01T01:38:32;21.00;;;12.32;;
52029;SDS011;38043;53.224;6.580;2023-04-01T01:43:29;19.73;;;12.23;;
52029;SDS011;38043;53.224;6.580;2023-04-01T01:45:59;20.00;;;11.77;;
52029;SDS011;38043;53.224;6.580;2023-04-01T01:48:28;20.02;;;13.20;;
52029;SDS011;38043;53.224;6.580;2023-04-01T01:50:55;18.95;;;12.10;;
52029;SDS011;38043;53.224;6.580;2023-04-01T01:53:21;20.00;;;12.73;;
52029;SDS011;38043;53.224;6.580;2023-04-01T01:55:47;20.08;;;12.27;;
52029;SDS011;38043;53.224;6.580;2023-04-01T01:58:23;19.17;;;12.65;;
52029;SDS011;38043;53.224;6.580;2023-04-01T02:00:57;18.75;;;12.40;;
52029;SDS011;38043;53.224;6.580;2023-04-01T02:03:27;20.38;;;12.23;;
52029;SDS011;38043;53.224;6.580;2023-04-01T02:05:56;18.52;;;11.88;;
52029;SDS011;38043;53.224;6.580;2023-04-01T02:08:28;20.20;;;12.25;;
52029;SDS011;38043;53.224;6.580;2023-04-01T02:11:02;22.05;;;12.20;;
52029;SDS011;38043;53.224;6.580;2023-04-01T02:13:35;16.75;;;11.82;;
52029;SDS011;38043;53.224;6.580;2023-04-01T02:16:16;22.45;;;11.60;;
52029;SDS011;38043;53.224;6.580;2023-04-01T02:18:48;24.42;;;12.23;;
52029;SDS011;38043;53.224;6.580;2023-04-01T02:21:16;16.98;;;11.65;;
52029;SDS011;38043;53.224;6.580;2023-04-01T02:23:45;19.25;;;11.25;;
52029;SDS011;38043;53.224;6.580;2023-04-01T02:26:12;22.05;;;12.15;;
52029;SDS011;38043;53.224;6.580;2023-04-01T02:28:39;19.33;;;11.45;;
52029;SDS011;38043;53.224;6.580;2023-04-01T02:31:07;19.98;;;11.77;;
52029;SDS011;38043;53.224;6.580;2023-04-01T02:33:35;24.10;;;11.80;;
52029;SDS011;38043;53.224;6.580;2023-04-01T02:36:04;19.33;;;11.23;;
52029;SDS011;38043;53.224;6.580;2023-04-01T02:38:30;17.60;;;11.27;;
52029;SDS011;38043;53.224;6.580;2023-04-01T02:40:57;19.23;;;11.13;;
52029;SDS011;38043;53.224;6.580;2023-04-01T02:43:26;20.42;;;11.85;;
52029;SDS011;38043;53.224;6.580;2023-04-01T02:45:52;18.80;;;11.43;;
52029;SDS011;38043;53.224;6.580;2023-04-01T02:48:18;24.45;;;12.10;;
52029;SDS011;38043;53.224;6.580;2023-04-01T02:50:44;20.02;;;12.10;;
52029;SDS011;38043;53.224;6.580;2023-04-01T02:53:09;21.33;;;12.90;;
52029;SDS011;38043;53.224;6.580;2023-04-01T02:55:35;18.75;;;12.40;;
52029;SDS011;38043;53.224;6.580;2023-04-01T02:58:01;22.65;;;13.50;;
52029;SDS011;38043;53.224;6.580;2023-04-01T03:00:27;22.27;;;13.30;;
52029;SDS011;38043;53.224;6.580;2023-04-01T03:02:52;25.65;;;14.15;;
52029;SDS011;38043;53.224;6.580;2023-04-01T03:05:19;22.08;;;15.05;;
52029;SDS011;38043;53.224;6.580;2023-04-01T03:07:45;26.60;;;15.82;;
52029;SDS011;38043;53.224;6.580;2023-04-01T03:10:10;29.40;;;16.00;;
52029;SDS011;38043;53.224;6.580;2023-04-01T03:12:36;25.00;;;14.73;;
52029;SDS011;38043;53.224;6.580;2023-04-01T03:15:02;28.05;;;16.35;;
52029;SDS011;38043;53.224;6.580;2023-04-01T03:17:28;28.90;;;15.90;;
52029;SDS011;38043;53.224;6.580;2023-04-01T03:19:53;32.88;;;17.10;;
52029;SDS011;38043;53.224;6.580;2023-04-01T03:22:19;29.00;;;17.27;;
52029;SDS011;38043;53.224;6.580;2023-04-01T03:24:48;28.48;;;17.23;;
52029;SDS011;38043;53.224;6.580;2023-04-01T03:27:14;30.77;;;17.23;;
52029;SDS011;38043;53.224;6.580;2023-04-01T03:29:40;32.40;;;17.63;;
52029;SDS011;38043;53.224;6.580;2023-04-01T03:32:05;33.42;;;18.00;;
52029;SDS011;38043;53.224;6.580;2023-04-01T03:34:31;30.70;;;17.80;;
52029;SDS011;38043;53.224;6.580;2023-04-01T03:36:57;29.52;;;18.17;;
52029;SDS011;38043;53.224;6.580;2023-04-01T03:39:23;37.85;;;18.50;;
52029;SDS011;38043;53.224;6.580;2023-04-01T03:41:49;31.55;;;17.17;;
52029;SDS011;38043;53.224;6.580;2023-04-01T03:44:14;31.50;;;17.60;;
52029;SDS011;38043;53.224;6.580;2023-04-01T03:46:40;31.27;;;17.77;;
52029;SDS011;38043;53.224;6.580;2023-04-01T03:49:06;33.60;;;18.42;;
52029;SDS011;38043;53.224;6.580;2023-04-01T03:51:36;36.03;;;18.65;;
52029;SDS011;38043;53.224;6.580;2023-04-01T03:54:03;32.53;;;19.08;;
52029;SDS011;38043;53.224;6.580;2023-04-01T03:56:30;34.42;;;18.50;;
52029;SDS011;38043;53.224;6.580;2023-04-01T03:58:55;39.60;;;18.02;;
52029;SDS011;38043;53.224;6.580;2023-04-01T04:01:21;30.08;;;17.15;;
52029;SDS011;38043;53.224;6.580;2023-04-01T04:03:48;33.97;;;19.05;;
52029;SDS011;38043;53.224;6.580;2023-04-01T04:06:14;33.35;;;17.40;;
52029;SDS011;38043;53.224;6.580;2023-04-01T04:08:41;35.45;;;17.13;;
52029;SDS011;38043;53.224;6.580;2023-04-01T04:11:08;34.63;;;18.08;;
52029;SDS011;38043;53.224;6.580;2023-04-01T04:13:34;35.60;;;18.77;;
52029;SDS011;38043;53.224;6.580;2023-04-01T04:16:00;31.75;;;18.35;;
52029;SDS011;38043;53.224;6.580;2023-04-01T04:18:27;37.33;;;19.15;;
52029;SDS011;38043;53.224;6.580;2023-04-01T04:20:52;34.30;;;18.10;;
52029;SDS011;38043;53.224;6.580;2023-04-01T04:23:18;35.42;;;18.25;;
52029;SDS011;38043;53.224;6.580;2023-04-01T04:25:59;36.45;;;19.10;;
52029;SDS011;38043;53.224;6.580;2023-04-01T04:28:27;36.03;;;18.98;;
52029;SDS011;38043;53.224;6.580;2023-04-01T04:30:53;35.25;;;19.25;;
52029;SDS011;38043;53.224;6.580;2023-04-01T04:33:21;34.13;;;19.42;;
52029;SDS011;38043;53.224;6.580;2023-04-01T04:35:48;37.80;;;19.55;;
52029;SDS011;38043;53.224;6.580;2023-04-01T04:38:13;38.60;;;20.00;;
52029;SDS011;38043;53.224;6.580;2023-04-01T04:40:39;34.40;;;19.30;;
52029;SDS011;38043;53.224;6.580;2023-04-01T04:43:06;37.80;;;19.88;;
52029;SDS011;38043;53.224;6.580;2023-04-01T04:45:32;35.63;;;20.90;;
52029;SDS011;38043;53.224;6.580;2023-04-01T04:47:58;30.83;;;19.33;;
52029;SDS011;38043;53.224;6.580;2023-04-01T04:50:23;32.58;;;18.65;;
52029;SDS011;38043;53.224;6.580;2023-04-01T04:52:50;35.60;;;20.67;;
52029;SDS011;38043;53.224;6.580;2023-04-01T04:55:16;40.20;;;21.38;;
52029;SDS011;38043;53.224;6.580;2023-04-01T04:57:41;33.95;;;20.75;;
52029;SDS011;38043;53.224;6.580;2023-04-01T05:00:07;35.65;;;19.83;;
52029;SDS011;38043;53.224;6.580;2023-04-01T05:02:35;35.30;;;19.45;;
52029;SDS011;38043;53.224;6.580;2023-04-01T05:05:01;36.10;;;21.00;;
52029;SDS011;38043;53.224;6.580;2023-04-01T05:07:26;39.13;;;21.17;;
52029;SDS011;38043;53.224;6.580;2023-04-01T05:09:52;35.75;;;20.13;;
52029;SDS011;38043;53.224;6.580;2023-04-01T05:12:17;42.15;;;21.25;;
52029;SDS011;38043;53.224;6.580;2023-04-01T05:14:43;37.45;;;19.95;;
52029;SDS011;38043;53.224;6.580;2023-04-01T05:17:11;39.45;;;21.08;;
52029;SDS011;38043;53.224;6.580;2023-04-01T05:19:38;44.13;;;21.92;;
52029;SDS011;38043;53.224;6.580;2023-04-01T05:22:04;39.10;;;21.10;;
52029;SDS011;38043;53.224;6.580;2023-04-01T05:24:31;41.83;;;21.17;;
52029;SDS011;38043;53.224;6.580;2023-04-01T05:26:56;36.17;;;19.85;;
52029;SDS011;38043;53.224;6.580;2023-04-01T05:29:23;42.97;;;21.30;;
52029;SDS011;38043;53.224;6.580;2023-04-01T05:31:49;43.33;;;21.33;;
52029;SDS011;38043;53.224;6.580;2023-04-01T05:34:15;40.03;;;21.00;;
52029;SDS011;38043;53.224;6.580;2023-04-01T05:36:41;38.08;;;20.77;;
52029;SDS011;38043;53.224;6.580;2023-04-01T05:39:07;38.10;;;20.67;;
52029;SDS011;38043;53.224;6.580;2023-04-01T05:41:37;40.03;;;21.27;;
52029;SDS011;38043;53.224;6.580;2023-04-01T05:44:03;43.22;;;21.13;;
52029;SDS011;38043;53.224;6.580;2023-04-01T05:46:29;31.92;;;19.05;;
52029;SDS011;38043;53.224;6.580;2023-04-01T05:48:55;43.10;;;21.02;;
52029;SDS011;38043;53.224;6.580;2023-04-01T05:51:21;45.22;;;21.27;;
52029;SDS011;38043;53.224;6.580;2023-04-01T05:53:47;39.42;;;20.77;;
52029;SDS011;38043;53.224;6.580;2023-04-01T05:56:13;36.15;;;19.25;;
52029;SDS011;38043;53.224;6.580;2023-04-01T05:58:38;40.97;;;20.77;;
52029;SDS011;38043;53.224;6.580;2023-04-01T06:01:09;37.92;;;18.92;;
52029;SDS011;38043;53.224;6.580;2023-04-01T06:03:36;35.58;;;18.45;;
52029;SDS011;38043;53.224;6.580;2023-04-01T06:06:02;40.42;;;18.92;;
52029;SDS011;38043;53.224;6.580;2023-04-01T06:08:29;40.35;;;19.40;;
52029;SDS011;38043;53.224;6.580;2023-04-01T06:16:39;36.85;;;20.63;;
52029;SDS011;38043;53.224;6.580;2023-04-01T06:27:54;37.67;;;21.02;;
52029;SDS011;38043;53.224;6.580;2023-04-01T06:30:42;38.80;;;20.95;;
52029;SDS011;38043;53.224;6.580;2023-04-01T06:33:32;32.65;;;19.58;;
52029;SDS011;38043;53.224;6.580;2023-04-01T06:36:17;41.10;;;21.55;;
52029;SDS011;38043;53.224;6.580;2023-04-01T06:41:50;34.03;;;21.15;;
52029;SDS011;38043;53.224;6.580;2023-04-01T06:47:58;32.28;;;20.13;;
52029;SDS011;38043;53.224;6.580;2023-04-01T06:50:29;33.72;;;21.05;;
52029;SDS011;38043;53.224;6.580;2023-04-01T06:53:10;40.83;;;22.33;;
52029;SDS011;38043;53.224;6.580;2023-04-01T06:55:46;37.00;;;22.00;;
52029;SDS011;38043;53.224;6.580;2023-04-01T06:58:28;33.67;;;21.48;;
52029;SDS011;38043;53.224;6.580;2023-04-01T07:01:01;35.05;;;21.90;;
52029;SDS011;38043;53.224;6.580;2023-04-01T07:03:44;33.15;;;21.58;;
52029;SDS011;38043;53.224;6.580;2023-04-01T07:06:30;35.05;;;22.23;;
52029;SDS011;38043;53.224;6.580;2023-04-01T07:09:00;36.70;;;23.90;;
52029;SDS011;38043;53.224;6.580;2023-04-01T07:11:31;43.53;;;23.33;;
52029;SDS011;38043;53.224;6.580;2023-04-01T07:19:22;39.95;;;22.73;;
52029;SDS011;38043;53.224;6.580;2023-04-01T07:22:21;38.45;;;23.70;;
52029;SDS011;38043;53.224;6.580;2023-04-01T07:25:02;37.93;;;23.00;;
52029;SDS011;38043;53.224;6.580;2023-04-01T07:27:47;36.33;;;22.23;;
52029;SDS011;38043;53.224;6.580;2023-04-01T07:32:42;36.92;;;22.13;;
52029;SDS011;38043;53.224;6.580;2023-04-01T07:35:29;33.63;;;21.42;;
52029;SDS011;38043;53.224;6.580;2023-04-01T07:38:11;33.45;;;20.35;;
52029;SDS011;38043;53.224;6.580;2023-04-01T07:40:48;28.75;;;20.08;;
52029;SDS011;38043;53.224;6.580;2023-04-01T07:51:31;32.10;;;20.88;;
52029;SDS011;38043;53.224;6.580;2023-04-01T07:59:58;30.87;;;21.17;;
52029;SDS011;38043;53.224;6.580;2023-04-01T08:05:49;31.27;;;21.13;;
52029;SDS011;38043;53.224;6.580;2023-04-01T08:18:41;23.13;;;16.65;;
52029;SDS011;38043;53.224;6.580;2023-04-01T08:21:12;25.65;;;17.17;;
52029;SDS011;38043;53.224;6.580;2023-04-01T08:23:46;22.02;;;16.20;;
52029;SDS011;38043;53.224;6.580;2023-04-01T08:26:34;23.67;;;15.77;;
52029;SDS011;38043;53.224;6.580;2023-04-01T08:31:48;19.73;;;15.23;;
52029;SDS011;38043;53.224;6.580;2023-04-01T08:34:28;22.30;;;16.63;;
52029;SDS011;38043;53.224;6.580;2023-04-01T08:37:04;21.98;;;15.85;;
52029;SDS011;38043;53.224;6.580;2023-04-01T08:39:37;19.55;;;15.20;;
52029;SDS011;38043;53.224;6.580;2023-04-01T08:54:07;14.55;;;11.48;;
52029;SDS011;38043;53.224;6.580;2023-04-01T08:59:38;9.93;;;7.10;;
52029;SDS011;38043;53.224;6.580;2023-04-01T09:13:29;11.38;;;7.35;;
52029;SDS011;38043;53.224;6.580;2023-04-01T09:16:20;8.23;;;5.95;;
52029;SDS011;38043;53.224;6.580;2023-04-01T09:21:46;10.70;;;5.32;;
52029;SDS011;38043;53.224;6.580;2023-04-01T09:30:02;5.47;;;3.85;;
52029;SDS011;38043;53.224;6.580;2023-04-01T09:41:11;6.97;;;3.55;;
52029;SDS011;38043;53.224;6.580;2023-04-01T09:49:09;6.03;;;3.85;;
52029;SDS011;38043;53.224;6.580;2023-04-01T09:54:49;10.07;;;4.18;;
52029;SDS011;38043;53.224;6.580;2023-04-01T10:00:29;6.65;;;4.45;;
52029;SDS011;38043;53.224;6.580;2023-04-01T10:31:32;5.40;;;3.10;;
52029;SDS011;38043;53.224;6.580;2023-04-01T10:39:54;3.47;;;2.30;;
52029;SDS011;38043;53.224;6.580;2023-04-01T10:43:00;5.28;;;2.50;;
52029;SDS011;38043;53.224;6.580;2023-04-01T10:54:17;3.50;;;2.65;;
52029;SDS011;38043;53.224;6.580;2023-04-01T10:57:08;7.38;;;2.70;;
52029;SDS011;38043;53.224;6.580;2023-04-01T11:00:18;4.68;;;2.90;;
52029;SDS011;38043;53.224;6.580;2023-04-01T11:03:29;6.03;;;3.33;;
52029;SDS011;38043;53.224;6.580;2023-04-01T11:27:42;4.40;;;2.95;;
52029;SDS011;38043;53.224;6.580;2023-04-01T11:32:50;6.57;;;2.78;;
52029;SDS011;38043;53.224;6.580;2023-04-01T11:38:04;3.70;;;2.47;;
52029;SDS011;38043;53.224;6.580;2023-04-01T11:43:33;3.88;;;2.50;;
52029;SDS011;38043;53.224;6.580;2023-04-01T11:46:25;4.32;;;2.70;;
52029;SDS011;38043;53.224;6.580;2023-04-01T11:55:32;6.20;;;2.60;;
52029;SDS011;38043;53.224;6.580;2023-04-01T12:16:37;3.92;;;2.58;;
52029;SDS011;38043;53.224;6.580;2023-04-01T12:24:46;4.20;;;2.20;;
52029;SDS011;38043;53.224;6.580;2023-04-01T12:30:58;4.53;;;2.50;;
52029;SDS011;38043;53.224;6.580;2023-04-01T12:34:07;3.88;;;2.25;;
52029;SDS011;38043;53.224;6.580;2023-04-01T12:39:33;3.50;;;2.45;;
52029;SDS011;38043;53.224;6.580;2023-04-01T12:57:59;3.10;;;2.08;;
52029;SDS011;38043;53.224;6.580;2023-04-01T13:06:18;4.07;;;2.10;;
52029;SDS011;38043;53.224;6.580;2023-04-01T13:14:44;3.22;;;2.30;;
52029;SDS011;38043;53.224;6.580;2023-04-01T13:20:40;3.63;;;2.10;;
52029;SDS011;38043;53.224;6.580;2023-04-01T13:28:25;2.95;;;2.25;;
52029;SDS011;38043;53.224;6.580;2023-04-01T13:31:01;2.70;;;2.03;;
52029;SDS011;38043;53.224;6.580;2023-04-01T13:41:27;3.28;;;1.80;;
52029;SDS011;38043;53.224;6.580;2023-04-01T13:44:11;3.38;;;1.80;;
52029;SDS011;38043;53.224;6.580;2023-04-01T13:49:53;3.67;;;1.80;;
52029;SDS011;38043;53.224;6.580;2023-04-01T13:52:50;2.80;;;1.88;;
52029;SDS011;38043;53.224;6.580;2023-04-01T13:58:23;3.08;;;2.22;;
52029;SDS011;38043;53.224;6.580;2023-04-01T14:06:56;3.78;;;2.00;;
52029;SDS011;38043;53.224;6.580;2023-04-01T14:23:20;5.05;;;1.55;;
52029;SDS011;38043;53.224;6.580;2023-04-01T14:34:31;2.90;;;1.80;;
52029;SDS011;38043;53.224;6.580;2023-04-01T14:37:23;3.08;;;1.90;;
52029;SDS011;38043;53.224;6.580;2023-04-01T14:40:26;5.28;;;1.83;;
52029;SDS011;38043;53.224;6.580;2023-04-01T14:45:48;7.78;;;2.03;;
52029;SDS011;38043;53.224;6.580;2023-04-01T14:48:38;3.85;;;1.80;;
52029;SDS011;38043;53.224;6.580;2023-04-01T14:51:21;2.83;;;1.90;;
52029;SDS011;38043;53.224;6.580;2023-04-01T14:56:49;5.40;;;2.53;;
52029;SDS011;38043;53.224;6.580;2023-04-01T14:59:27;25.30;;;2.42;;
52029;SDS011;38043;53.224;6.580;2023-04-01T15:02:14;3.92;;;2.35;;
52029;SDS011;38043;53.224;6.580;2023-04-01T15:32:24;7.13;;;3.13;;
52029;SDS011;38043;53.224;6.580;2023-04-01T15:35:21;6.70;;;3.72;;
52029;SDS011;38043;53.224;6.580;2023-04-01T15:40:27;5.70;;;3.30;;
52029;SDS011;38043;53.224;6.580;2023-04-01T15:48:55;6.22;;;3.50;;
52029;SDS011;38043;53.224;6.580;2023-04-01T15:51:37;7.87;;;4.30;;
52029;SDS011;38043;53.224;6.580;2023-04-01T15:56:54;9.10;;;4.35;;
52029;SDS011;38043;53.224;6.580;2023-04-01T15:59:43;10.25;;;4.50;;
52029;SDS011;38043;53.224;6.580;2023-04-01T16:02:18;12.63;;;7.20;;
52029;SDS011;38043;53.224;6.580;2023-04-01T16:05:21;13.57;;;5.07;;
52029;SDS011;38043;53.224;6.580;2023-04-01T16:08:16;11.35;;;4.75;;
52029;SDS011;38043;53.224;6.580;2023-04-01T16:16:47;13.32;;;4.78;;
52029;SDS011;38043;53.224;6.580;2023-04-01T16:19:25;11.80;;;4.30;;
52029;SDS011;38043;53.224;6.580;2023-04-01T16:22:21;8.18;;;4.72;;
52029;SDS011;38043;53.224;6.580;2023-04-01T16:30:42;9.90;;;5.18;;
52029;SDS011;38043;53.224;6.580;2023-04-01T16:33:14;10.43;;;4.80;;
52029;SDS011;38043;53.224;6.580;2023-04-01T16:41:17;12.80;;;5.55;;
52029;SDS011;38043;53.224;6.580;2023-04-01T16:43:49;12.80;;;5.72;;
52029;SDS011;38043;53.224;6.580;2023-04-01T16:46:39;9.98;;;4.80;;
52029;SDS011;38043;53.224;6.580;2023-04-01T16:56:48;9.40;;;4.60;;
52029;SDS011;38043;53.224;6.580;2023-04-01T16:59:21;10.27;;;4.85;;
52029;SDS011;38043;53.224;6.580;2023-04-01T17:02:02;8.15;;;4.32;;
52029;SDS011;38043;53.224;6.580;2023-04-01T17:04:43;7.93;;;4.43;;
52029;SDS011;38043;53.224;6.580;2023-04-01T17:18:09;8.68;;;4.57;;
52029;SDS011;38043;53.224;6.580;2023-04-01T17:23:53;9.40;;;5.18;;
52029;SDS011;38043;53.224;6.580;2023-04-01T17:26:39;10.82;;;5.22;;
52029;SDS011;38043;53.224;6.580;2023-04-01T17:29:31;10.52;;;5.38;;
52029;SDS011;38043;53.224;6.580;2023-04-01T17:48:24;10.45;;;5.50;;
52029;SDS011;38043;53.224;6.580;2023-04-01T17:51:06;13.52;;;5.65;;
52029;SDS011;38043;53.224;6.580;2023-04-01T17:59:10;12.95;;;6.60;;
52029;SDS011;38043;53.224;6.580;2023-04-01T18:02:02;11.20;;;6.22;;
52029;SDS011;38043;53.224;6.580;2023-04-01T18:04:54;17.05;;;6.50;;
52029;SDS011;38043;53.224;6.580;2023-04-01T18:15:55;9.85;;;5.85;;
52029;SDS011;38043;53.224;6.580;2023-04-01T18:23:56;11.52;;;5.57;;
52029;SDS011;38043;53.224;6.580;2023-04-01T18:26:27;13.70;;;5.35;;
52029;SDS011;38043;53.224;6.580;2023-04-01T18:29:13;13.52;;;5.47;;
52029;SDS011;38043;53.224;6.580;2023-04-01T18:37:39;13.73;;;5.72;;
52029;SDS011;38043;53.224;6.580;2023-04-01T18:40:19;14.90;;;6.82;;
52029;SDS011;38043;53.224;6.580;2023-04-01T18:43:00;14.30;;;6.15;;
52029;SDS011;38043;53.224;6.580;2023-04-01T18:45:37;10.80;;;6.40;;
52029;SDS011;38043;53.224;6.580;2023-04-01T18:53:45;15.93;;;6.40;;
52029;SDS011;38043;53.224;6.580;2023-04-01T18:59:09;12.85;;;6.30;;
52029;SDS011;38043;53.224;6.580;2023-04-01T19:04:31;10.77;;;5.95;;
52029;SDS011;38043;53.224;6.580;2023-04-01T19:07:21;11.23;;;6.00;;
52029;SDS011;38043;53.224;6.580;2023-04-01T19:13:10;14.93;;;6.38;;
52029;SDS011;38043;53.224;6.580;2023-04-01T19:16:09;12.02;;;5.85;;
52029;SDS011;38043;53.224;6.580;2023-04-01T19:24:17;13.15;;;6.20;;
52029;SDS011;38043;53.224;6.580;2023-04-01T19:26:48;14.48;;;6.90;;
52029;SDS011;38043;53.224;6.580;2023-04-01T19:43:23;12.27;;;6.13;;
52029;SDS011;38043;53.224;6.580;2023-04-01T19:56:48;13.27;;;5.82;;
52029;SDS011;38043;53.224;6.580;2023-04-01T19:59:31;13.77;;;5.38;;
52029;SDS011;38043;53.224;6.580;2023-04-01T20:13:04;10.80;;;6.22;;
52029;SDS011;38043;53.224;6.580;2023-04-01T20:15:45;9.57;;;5.00;;
52029;SDS011;38043;53.224;6.580;2023-04-01T20:18:23;13.00;;;5.90;;
52029;SDS011;38043;53.224;6.580;2023-04-01T20:21:16;12.48;;;4.68;;
52029;SDS011;38043;53.224;6.580;2023-04-01T20:26:25;12.02;;;4.75;;
52029;SDS011;38043;53.224;6.580;2023-04-01T20:31:44;16.60;;;5.70;;
52029;SDS011;38043;53.224;6.580;2023-04-01T20:34:20;11.15;;;4.43;;
52029;SDS011;38043;53.224;6.580;2023-04-01T20:37:13;10.77;;;4.88;;
52029;SDS011;38043;53.224;6.580;2023-04-01T20:42:22;10.07;;;4.75;;
52029;SDS011;38043;53.224;6.580;2023-04-01T20:45:20;13.18;;;5.30;;
52029;SDS011;38043;53.224;6.580;2023-04-01T20:51:06;10.15;;;5.07;;
52029;SDS011;38043;53.224;6.580;2023-04-01T20:53:48;9.10;;;4.43;;
52029;SDS011;38043;53.224;6.580;2023-04-01T21:06:52;14.18;;;5.38;;
52029;SDS011;38043;53.224;6.580;2023-04-01T21:15:20;13.13;;;4.32;;
52029;SDS011;38043;53.224;6.580;2023-04-01T21:17:58;10.77;;;4.78;;
52029;SDS011;38043;53.224;6.580;2023-04-01T21:20:46;11.45;;;4.82;;
52029;SDS011;38043;53.224;6.580;2023-04-01T21:26:41;7.90;;;4.20;;
52029;SDS011;38043;53.224;6.580;2023-04-01T21:39:57;12.60;;;5.00;;
52029;SDS011;38043;53.224;6.580;2023-04-01T21:42:32;9.70;;;4.30;;
52029;SDS011;38043;53.224;6.580;2023-04-01T21:59:42;10.10;;;4.00;;
52029;SDS011;38043;53.224;6.580;2023-04-01T22:10:57;10.88;;;4.38;;
52029;SDS011;38043;53.224;6.580;2023-04-01T22:13:32;8.85;;;4.03;;
52029;SDS011;38043;53.224;6.580;2023-04-01T22:18:50;11.27;;;4.55;;
52029;SDS011;38043;53.224;6.580;2023-04-01T22:27:03;9.68;;;4.70;;
52029;SDS011;38043;53.224;6.580;2023-04-01T22:32:39;12.40;;;4.22;;
52029;SDS011;38043;53.224;6.580;2023-04-01T22:38:17;12.40;;;3.78;;
52029;SDS011;38043;53.224;6.580;2023-04-01T22:44:07;13.27;;;3.88;;
52029;SDS011;38043;53.224;6.580;2023-04-01T22:49:44;11.75;;;3.83;;
52029;SDS011;38043;53.224;6.580;2023-04-01T22:54:59;13.70;;;3.03;;
52029;SDS011;38043;53.224;6.580;2023-04-01T22:57:46;8.88;;;3.40;;
52029;SDS011;38043;53.224;6.580;2023-04-01T23:00:20;11.77;;;3.78;;
52029;SDS011;38043;53.224;6.580;2023-04-01T23:03:12;9.07;;;3.50;;
52029;SDS011;38043;53.224;6.580;2023-04-01T23:05:55;7.45;;;3.10;;
52029;SDS011;38043;53.224;6.580;2023-04-01T23:11:23;6.72;;;3.22;;
52029;SDS011;38043;53.224;6.580;2023-04-01T23:14:16;13.10;;;3.50;;
52029;SDS011;38043;53.224;6.580;2023-04-01T23:35:49;11.00;;;3.60;;
52029;SDS011;38043;53.224;6.580;2023-04-01T23:38:19;9.50;;;3.72;;
52029;SDS011;38043;53.224;6.580;2023-04-01T23:43:28;9.07;;;3.15;;
52029;SDS011;38043;53.224;6.580;2023-04-01T23:45:57;8.85;;;3.20;;
52029;SDS011;38043;53.224;6.580;2023-04-01T23:48:30;11.98;;;3.08;;
52029;SDS011;38043;53.224;6.580;2023-04-01T23:51:00;7.93;;;3.60;;
52029;SDS011;38043;53.224;6.580;2023-04-01T23:53:28;8.45;;;3.33;;
52029;SDS011;38043;53.224;6.580;2023-04-01T23:55:57;7.82;;;3.03;;
52029;SDS011;38043;53.224;6.580;2023-04-01T23:58:25;7.03;;;3.17;;
